sensor_id;sensor_type;location;lat;lon;timestamp;P1;durP1;ratioP1;P2;durP2;ratioP2
8675;SDS011;4375;52.486;13.424;2023-05-10T00:01:45;18.57;;;5.50;;
8675;SDS011;4375;52.486;13.424;2023-05-10T00:04:11;23.60;;;6.07;;
8675;SDS011;4375;52.486;13.424;2023-05-10T00:06:37;19.00;;;6.43;;
8675;SDS011;4375;52.486;13.424;2023-05-10T00:09:02;19.57;;;6.10;;
8675;SDS011;4375;52.486;13.424;2023-05-10T00:11:28;21.53;;;6.13;;
8675;SDS011;4375;52.486;13.424;2023-05-10T00:13:54;20.20;;;5.90;;
8675;SDS011;4375;52.486;13.424;2023-05-10T00:16:20;19.63;;;6.00;;
8675;SDS011;4375;52.486;13.424;2023-05-10T00:18:46;20.53;;;6.40;;
8675;SDS011;4375;52.486;13.424;2023-05-10T00:21:11;19.10;;;5.93;;
8675;SDS011;4375;52.486;13.424;2023-05-10T00:23:37;19.27;;;6.20;;
8675;SDS011;4375;52.486;13.424;2023-05-10T00:26:03;19.37;;;5.60;;
8675;SDS011;4375;52.486;13.424;2023-05-10T00:28:29;19.40;;;5.90;;
8675;SDS011;4375;52.486;13.424;2023-05-10T00:30:54;20.57;;;6.23;;
8675;SDS011;4375;52.486;13.424;2023-05-10T00:33:20;21.00;;;6.50;;
8675;SDS011;4375;52.486;13.424;2023-05-10T00:35:46;20.40;;;6.10;;
8675;SDS011;4375;52.486;13.424;2023-05-10T00:38:12;24.57;;;7.30;;
8675;SDS011;4375;52.486;13.424;2023-05-10T00:40:37;23.53;;;8.23;;
8675;SDS011;4375;52.486;13.424;2023-05-10T00:43:03;23.27;;;7.70;;
8675;SDS011;4375;52.486;13.424;2023-05-10T00:45:30;26.60;;;7.00;;
8675;SDS011;4375;52.486;13.424;2023-05-10T00:47:57;21.53;;;7.30;;
8675;SDS011;4375;52.486;13.424;2023-05-10T00:50:24;21.23;;;6.23;;
8675;SDS011;4375;52.486;13.424;2023-05-10T00:52:50;20.97;;;6.60;;
8675;SDS011;4375;52.486;13.424;2023-05-10T00:55:16;19.73;;;7.47;;
8675;SDS011;4375;52.486;13.424;2023-05-10T00:57:43;19.97;;;6.80;;
8675;SDS011;4375;52.486;13.424;2023-05-10T01:00:09;20.53;;;6.70;;
8675;SDS011;4375;52.486;13.424;2023-05-10T01:02:36;20.33;;;7.27;;
8675;SDS011;4375;52.486;13.424;2023-05-10T01:05:02;21.83;;;7.27;;
8675;SDS011;4375;52.486;13.424;2023-05-10T01:07:28;23.57;;;6.97;;
8675;SDS011;4375;52.486;13.424;2023-05-10T01:09:54;18.13;;;6.33;;
8675;SDS011;4375;52.486;13.424;2023-05-10T01:12:21;23.80;;;6.50;;
8675;SDS011;4375;52.486;13.424;2023-05-10T01:14:47;21.80;;;6.87;;
8675;SDS011;4375;52.486;13.424;2023-05-10T01:17:13;19.87;;;7.10;;
8675;SDS011;4375;52.486;13.424;2023-05-10T01:19:39;22.27;;;7.83;;
8675;SDS011;4375;52.486;13.424;2023-05-10T01:32:43;20.83;;;6.00;;
8675;SDS011;4375;52.486;13.424;2023-05-10T01:35:29;29.90;;;6.87;;
8675;SDS011;4375;52.486;13.424;2023-05-10T01:38:17;25.97;;;7.40;;
8675;SDS011;4375;52.486;13.424;2023-05-10T01:43:37;20.97;;;7.40;;
8675;SDS011;4375;52.486;13.424;2023-05-10T01:46:27;19.47;;;6.17;;
8675;SDS011;4375;52.486;13.424;2023-05-10T01:49:39;20.60;;;6.67;;
8675;SDS011;4375;52.486;13.424;2023-05-10T01:52:02;22.57;;;7.00;;
8675;SDS011;4375;52.486;13.424;2023-05-10T01:54:32;18.97;;;6.30;;
8675;SDS011;4375;52.486;13.424;2023-05-10T01:57:00;21.90;;;7.37;;
8675;SDS011;4375;52.486;13.424;2023-05-10T01:59:30;18.37;;;5.83;;
8675;SDS011;4375;52.486;13.424;2023-05-10T02:02:04;20.83;;;6.73;;
8675;SDS011;4375;52.486;13.424;2023-05-10T02:04:30;19.07;;;6.43;;
8675;SDS011;4375;52.486;13.424;2023-05-10T02:06:58;22.60;;;6.53;;
8675;SDS011;4375;52.486;13.424;2023-05-10T02:09:24;19.43;;;7.00;;
8675;SDS011;4375;52.486;13.424;2023-05-10T02:11:51;20.60;;;6.40;;
8675;SDS011;4375;52.486;13.424;2023-05-10T02:14:18;20.87;;;7.17;;
8675;SDS011;4375;52.486;13.424;2023-05-10T02:16:45;19.80;;;6.83;;
8675;SDS011;4375;52.486;13.424;2023-05-10T02:19:13;19.30;;;5.70;;
8675;SDS011;4375;52.486;13.424;2023-05-10T02:21:40;21.43;;;6.83;;
8675;SDS011;4375;52.486;13.424;2023-05-10T02:24:07;19.33;;;5.70;;
8675;SDS011;4375;52.486;13.424;2023-05-10T02:26:35;20.33;;;7.10;;
8675;SDS011;4375;52.486;13.424;2023-05-10T02:29:03;20.37;;;6.77;;
8675;SDS011;4375;52.486;13.424;2023-05-10T02:31:32;22.23;;;6.80;;
8675;SDS011;4375;52.486;13.424;2023-05-10T02:34:00;19.83;;;6.20;;
8675;SDS011;4375;52.486;13.424;2023-05-10T02:36:27;19.47;;;6.07;;
8675;SDS011;4375;52.486;13.424;2023-05-10T02:38:53;19.83;;;7.53;;
8675;SDS011;4375;52.486;13.424;2023-05-10T02:41:20;22.50;;;7.30;;
8675;SDS011;4375;52.486;13.424;2023-05-10T02:43:49;23.80;;;6.50;;
8675;SDS011;4375;52.486;13.424;2023-05-10T02:46:17;19.23;;;5.90;;
8675;SDS011;4375;52.486;13.424;2023-05-10T02:48:43;22.17;;;6.60;;
8675;SDS011;4375;52.486;13.424;2023-05-10T02:51:09;21.00;;;6.47;;
8675;SDS011;4375;52.486;13.424;2023-05-10T02:53:40;24.77;;;6.43;;
8675;SDS011;4375;52.486;13.424;2023-05-10T02:56:12;20.60;;;6.83;;
8675;SDS011;4375;52.486;13.424;2023-05-10T02:58:42;22.00;;;6.13;;
8675;SDS011;4375;52.486;13.424;2023-05-10T03:01:08;19.60;;;5.60;;
8675;SDS011;4375;52.486;13.424;2023-05-10T03:03:34;19.53;;;6.20;;
8675;SDS011;4375;52.486;13.424;2023-05-10T03:06:00;18.70;;;5.80;;
8675;SDS011;4375;52.486;13.424;2023-05-10T03:08:25;27.13;;;7.10;;
8675;SDS011;4375;52.486;13.424;2023-05-10T03:16:42;19.70;;;6.10;;
8675;SDS011;4375;52.486;13.424;2023-05-10T03:19:16;26.70;;;6.57;;
8675;SDS011;4375;52.486;13.424;2023-05-10T03:21:49;20.97;;;6.37;;
8675;SDS011;4375;52.486;13.424;2023-05-10T03:24:18;20.13;;;5.43;;
8675;SDS011;4375;52.486;13.424;2023-05-10T03:26:46;20.70;;;6.50;;
8675;SDS011;4375;52.486;13.424;2023-05-10T03:29:13;21.60;;;6.80;;
8675;SDS011;4375;52.486;13.424;2023-05-10T03:31:40;20.97;;;6.50;;
8675;SDS011;4375;52.486;13.424;2023-05-10T03:34:06;18.90;;;6.00;;
8675;SDS011;4375;52.486;13.424;2023-05-10T03:36:32;21.87;;;6.70;;
8675;SDS011;4375;52.486;13.424;2023-05-10T03:38:58;20.63;;;6.13;;
8675;SDS011;4375;52.486;13.424;2023-05-10T03:41:23;21.23;;;5.90;;
8675;SDS011;4375;52.486;13.424;2023-05-10T03:43:50;20.07;;;5.93;;
8675;SDS011;4375;52.486;13.424;2023-05-10T03:46:16;22.47;;;6.13;;
8675;SDS011;4375;52.486;13.424;2023-05-10T03:48:42;22.83;;;6.50;;
8675;SDS011;4375;52.486;13.424;2023-05-10T03:51:07;22.73;;;6.17;;
8675;SDS011;4375;52.486;13.424;2023-05-10T03:53:33;20.53;;;6.00;;
8675;SDS011;4375;52.486;13.424;2023-05-10T03:55:59;22.17;;;6.33;;
8675;SDS011;4375;52.486;13.424;2023-05-10T03:58:24;20.93;;;6.07;;
8675;SDS011;4375;52.486;13.424;2023-05-10T04:00:50;20.07;;;5.70;;
8675;SDS011;4375;52.486;13.424;2023-05-10T04:03:17;21.60;;;6.00;;
8675;SDS011;4375;52.486;13.424;2023-05-10T04:05:43;18.10;;;5.47;;
8675;SDS011;4375;52.486;13.424;2023-05-10T04:08:08;21.13;;;6.03;;
8675;SDS011;4375;52.486;13.424;2023-05-10T04:10:34;27.47;;;6.67;;
8675;SDS011;4375;52.486;13.424;2023-05-10T04:13:00;20.47;;;6.43;;
8675;SDS011;4375;52.486;13.424;2023-05-10T04:15:26;22.17;;;5.23;;
8675;SDS011;4375;52.486;13.424;2023-05-10T04:17:51;20.70;;;6.07;;
8675;SDS011;4375;52.486;13.424;2023-05-10T04:20:17;20.23;;;5.97;;
8675;SDS011;4375;52.486;13.424;2023-05-10T04:22:42;20.17;;;5.53;;
8675;SDS011;4375;52.486;13.424;2023-05-10T04:25:08;22.00;;;6.50;;
8675;SDS011;4375;52.486;13.424;2023-05-10T04:27:34;21.50;;;5.70;;
8675;SDS011;4375;52.486;13.424;2023-05-10T04:30:00;19.20;;;5.33;;
8675;SDS011;4375;52.486;13.424;2023-05-10T04:32:26;19.30;;;5.10;;
8675;SDS011;4375;52.486;13.424;2023-05-10T04:34:51;20.67;;;6.20;;
8675;SDS011;4375;52.486;13.424;2023-05-10T04:37:18;21.63;;;5.67;;
8675;SDS011;4375;52.486;13.424;2023-05-10T04:39:43;19.17;;;5.67;;
8675;SDS011;4375;52.486;13.424;2023-05-10T04:42:09;19.10;;;5.07;;
8675;SDS011;4375;52.486;13.424;2023-05-10T04:44:35;22.67;;;5.83;;
8675;SDS011;4375;52.486;13.424;2023-05-10T04:47:01;22.07;;;6.30;;
8675;SDS011;4375;52.486;13.424;2023-05-10T04:49:28;23.23;;;5.57;;
8675;SDS011;4375;52.486;13.424;2023-05-10T04:51:54;17.50;;;5.20;;
8675;SDS011;4375;52.486;13.424;2023-05-10T04:54:20;17.67;;;5.10;;
8675;SDS011;4375;52.486;13.424;2023-05-10T04:56:46;20.17;;;5.23;;
8675;SDS011;4375;52.486;13.424;2023-05-10T04:59:11;18.60;;;5.50;;
8675;SDS011;4375;52.486;13.424;2023-05-10T05:01:37;21.53;;;5.80;;
8675;SDS011;4375;52.486;13.424;2023-05-10T05:04:02;28.80;;;5.27;;
8675;SDS011;4375;52.486;13.424;2023-05-10T05:06:28;21.23;;;5.20;;
8675;SDS011;4375;52.486;13.424;2023-05-10T05:08:54;19.57;;;5.80;;
8675;SDS011;4375;52.486;13.424;2023-05-10T05:11:20;25.73;;;4.70;;
8675;SDS011;4375;52.486;13.424;2023-05-10T05:13:46;20.23;;;5.17;;
8675;SDS011;4375;52.486;13.424;2023-05-10T05:16:11;20.40;;;5.53;;
8675;SDS011;4375;52.486;13.424;2023-05-10T05:18:37;16.97;;;4.87;;
8675;SDS011;4375;52.486;13.424;2023-05-10T05:21:03;18.93;;;5.30;;
8675;SDS011;4375;52.486;13.424;2023-05-10T05:23:38;20.07;;;4.73;;
8675;SDS011;4375;52.486;13.424;2023-05-10T05:26:03;23.27;;;5.20;;
8675;SDS011;4375;52.486;13.424;2023-05-10T05:28:29;22.90;;;5.00;;
8675;SDS011;4375;52.486;13.424;2023-05-10T05:30:57;20.10;;;4.43;;
8675;SDS011;4375;52.486;13.424;2023-05-10T05:33:23;19.57;;;4.13;;
8675;SDS011;4375;52.486;13.424;2023-05-10T05:35:49;18.53;;;3.70;;
8675;SDS011;4375;52.486;13.424;2023-05-10T05:38:15;19.20;;;4.57;;
8675;SDS011;4375;52.486;13.424;2023-05-10T05:40:42;17.87;;;4.77;;
8675;SDS011;4375;52.486;13.424;2023-05-10T05:43:08;17.33;;;4.13;;
8675;SDS011;4375;52.486;13.424;2023-05-10T05:45:33;19.30;;;4.50;;
8675;SDS011;4375;52.486;13.424;2023-05-10T05:47:59;22.30;;;5.30;;
8675;SDS011;4375;52.486;13.424;2023-05-10T05:50:25;18.87;;;5.17;;
8675;SDS011;4375;52.486;13.424;2023-05-10T05:52:50;16.30;;;4.00;;
8675;SDS011;4375;52.486;13.424;2023-05-10T05:55:16;18.60;;;4.70;;
8675;SDS011;4375;52.486;13.424;2023-05-10T05:57:42;16.90;;;4.17;;
8675;SDS011;4375;52.486;13.424;2023-05-10T06:00:08;25.80;;;4.60;;
8675;SDS011;4375;52.486;13.424;2023-05-10T06:02:33;19.10;;;3.70;;
8675;SDS011;4375;52.486;13.424;2023-05-10T06:04:59;22.70;;;4.30;;
8675;SDS011;4375;52.486;13.424;2023-05-10T06:07:25;17.47;;;4.07;;
8675;SDS011;4375;52.486;13.424;2023-05-10T06:09:50;21.20;;;4.20;;
8675;SDS011;4375;52.486;13.424;2023-05-10T06:12:16;20.23;;;4.10;;
8675;SDS011;4375;52.486;13.424;2023-05-10T06:14:42;19.90;;;4.27;;
8675;SDS011;4375;52.486;13.424;2023-05-10T06:17:07;18.33;;;3.50;;
8675;SDS011;4375;52.486;13.424;2023-05-10T06:19:33;16.03;;;3.50;;
8675;SDS011;4375;52.486;13.424;2023-05-10T06:21:58;20.70;;;4.40;;
8675;SDS011;4375;52.486;13.424;2023-05-10T06:24:24;20.50;;;4.17;;
8675;SDS011;4375;52.486;13.424;2023-05-10T06:26:50;19.77;;;3.90;;
8675;SDS011;4375;52.486;13.424;2023-05-10T06:29:15;16.73;;;4.10;;
8675;SDS011;4375;52.486;13.424;2023-05-10T06:31:41;17.70;;;3.93;;
8675;SDS011;4375;52.486;13.424;2023-05-10T06:34:07;18.40;;;3.57;;
8675;SDS011;4375;52.486;13.424;2023-05-10T06:36:33;17.13;;;3.43;;
8675;SDS011;4375;52.486;13.424;2023-05-10T06:38:59;20.80;;;3.90;;
8675;SDS011;4375;52.486;13.424;2023-05-10T06:41:24;18.10;;;4.23;;
8675;SDS011;4375;52.486;13.424;2023-05-10T06:43:50;16.00;;;3.37;;
8675;SDS011;4375;52.486;13.424;2023-05-10T06:46:15;16.83;;;3.50;;
8675;SDS011;4375;52.486;13.424;2023-05-10T06:48:41;18.30;;;3.87;;
8675;SDS011;4375;52.486;13.424;2023-05-10T06:51:07;17.27;;;3.20;;
8675;SDS011;4375;52.486;13.424;2023-05-10T06:53:32;20.37;;;3.77;;
8675;SDS011;4375;52.486;13.424;2023-05-10T06:55:58;17.37;;;3.73;;
8675;SDS011;4375;52.486;13.424;2023-05-10T06:58:23;19.90;;;3.80;;
8675;SDS011;4375;52.486;13.424;2023-05-10T07:00:49;19.83;;;4.23;;
8675;SDS011;4375;52.486;13.424;2023-05-10T07:03:15;18.47;;;3.63;;
8675;SDS011;4375;52.486;13.424;2023-05-10T07:05:41;22.00;;;3.27;;
8675;SDS011;4375;52.486;13.424;2023-05-10T07:08:07;17.17;;;3.53;;
8675;SDS011;4375;52.486;13.424;2023-05-10T07:10:33;16.87;;;3.23;;
8675;SDS011;4375;52.486;13.424;2023-05-10T07:12:59;21.30;;;3.60;;
8675;SDS011;4375;52.486;13.424;2023-05-10T07:15:26;19.80;;;3.40;;
8675;SDS011;4375;52.486;13.424;2023-05-10T07:17:51;15.80;;;3.50;;
8675;SDS011;4375;52.486;13.424;2023-05-10T07:20:17;18.10;;;3.83;;
8675;SDS011;4375;52.486;13.424;2023-05-10T07:22:43;17.60;;;3.07;;
8675;SDS011;4375;52.486;13.424;2023-05-10T07:25:09;18.60;;;3.60;;
8675;SDS011;4375;52.486;13.424;2023-05-10T07:27:34;16.80;;;2.90;;
8675;SDS011;4375;52.486;13.424;2023-05-10T07:30:00;16.53;;;3.13;;
8675;SDS011;4375;52.486;13.424;2023-05-10T07:32:26;17.17;;;3.07;;
8675;SDS011;4375;52.486;13.424;2023-05-10T07:34:52;20.00;;;3.20;;
8675;SDS011;4375;52.486;13.424;2023-05-10T07:37:17;16.60;;;3.53;;
8675;SDS011;4375;52.486;13.424;2023-05-10T07:39:43;21.20;;;3.60;;
8675;SDS011;4375;52.486;13.424;2023-05-10T07:42:09;16.70;;;3.07;;
8675;SDS011;4375;52.486;13.424;2023-05-10T07:44:34;15.20;;;3.00;;
8675;SDS011;4375;52.486;13.424;2023-05-10T07:47:00;16.00;;;3.13;;
8675;SDS011;4375;52.486;13.424;2023-05-10T07:49:25;16.60;;;2.67;;
8675;SDS011;4375;52.486;13.424;2023-05-10T07:51:51;15.70;;;3.50;;
8675;SDS011;4375;52.486;13.424;2023-05-10T07:54:17;16.70;;;2.90;;
8675;SDS011;4375;52.486;13.424;2023-05-10T07:56:42;17.60;;;3.20;;
8675;SDS011;4375;52.486;13.424;2023-05-10T07:59:15;18.67;;;3.30;;
8675;SDS011;4375;52.486;13.424;2023-05-10T08:01:42;15.90;;;3.07;;
8675;SDS011;4375;52.486;13.424;2023-05-10T08:04:08;15.47;;;3.50;;
8675;SDS011;4375;52.486;13.424;2023-05-10T08:06:34;16.70;;;2.40;;
8675;SDS011;4375;52.486;13.424;2023-05-10T08:08:59;17.00;;;3.73;;
8675;SDS011;4375;52.486;13.424;2023-05-10T08:11:25;16.40;;;3.43;;
8675;SDS011;4375;52.486;13.424;2023-05-10T08:13:52;17.63;;;3.13;;
8675;SDS011;4375;52.486;13.424;2023-05-10T08:16:18;15.43;;;2.93;;
8675;SDS011;4375;52.486;13.424;2023-05-10T08:18:45;16.10;;;2.83;;
8675;SDS011;4375;52.486;13.424;2023-05-10T08:21:13;17.80;;;3.40;;
8675;SDS011;4375;52.486;13.424;2023-05-10T08:23:39;16.20;;;2.97;;
8675;SDS011;4375;52.486;13.424;2023-05-10T08:26:05;16.00;;;2.50;;
8675;SDS011;4375;52.486;13.424;2023-05-10T08:28:31;16.10;;;2.53;;
8675;SDS011;4375;52.486;13.424;2023-05-10T08:30:57;18.30;;;3.03;;
8675;SDS011;4375;52.486;13.424;2023-05-10T08:33:22;16.90;;;2.70;;
8675;SDS011;4375;52.486;13.424;2023-05-10T08:35:48;17.43;;;2.83;;
8675;SDS011;4375;52.486;13.424;2023-05-10T08:38:14;16.77;;;3.43;;
8675;SDS011;4375;52.486;13.424;2023-05-10T08:40:43;16.13;;;2.80;;
8675;SDS011;4375;52.486;13.424;2023-05-10T08:43:10;15.10;;;2.53;;
8675;SDS011;4375;52.486;13.424;2023-05-10T08:45:38;18.77;;;3.00;;
8675;SDS011;4375;52.486;13.424;2023-05-10T08:48:06;15.77;;;2.87;;
8675;SDS011;4375;52.486;13.424;2023-05-10T08:50:35;14.60;;;2.93;;
8675;SDS011;4375;52.486;13.424;2023-05-10T08:53:03;21.57;;;2.97;;
8675;SDS011;4375;52.486;13.424;2023-05-10T08:55:31;14.77;;;2.27;;
8675;SDS011;4375;52.486;13.424;2023-05-10T08:57:58;14.30;;;2.50;;
8675;SDS011;4375;52.486;13.424;2023-05-10T09:00:24;16.13;;;3.00;;
8675;SDS011;4375;52.486;13.424;2023-05-10T09:02:51;17.57;;;2.73;;
8675;SDS011;4375;52.486;13.424;2023-05-10T09:05:17;16.70;;;3.27;;
8675;SDS011;4375;52.486;13.424;2023-05-10T09:07:43;19.30;;;3.07;;
8675;SDS011;4375;52.486;13.424;2023-05-10T09:10:09;18.97;;;2.80;;
8675;SDS011;4375;52.486;13.424;2023-05-10T09:12:36;15.93;;;2.90;;
8675;SDS011;4375;52.486;13.424;2023-05-10T09:15:02;16.10;;;2.80;;
8675;SDS011;4375;52.486;13.424;2023-05-10T09:17:30;19.20;;;3.90;;
8675;SDS011;4375;52.486;13.424;2023-05-10T09:19:57;15.67;;;2.80;;
8675;SDS011;4375;52.486;13.424;2023-05-10T09:22:24;16.77;;;3.10;;
8675;SDS011;4375;52.486;13.424;2023-05-10T09:25:12;16.10;;;3.13;;
8675;SDS011;4375;52.486;13.424;2023-05-10T09:27:39;17.33;;;3.30;;
8675;SDS011;4375;52.486;13.424;2023-05-10T09:30:10;15.43;;;3.10;;
8675;SDS011;4375;52.486;13.424;2023-05-10T09:32:41;21.13;;;3.30;;
8675;SDS011;4375;52.486;13.424;2023-05-10T09:35:11;15.23;;;3.10;;
8675;SDS011;4375;52.486;13.424;2023-05-10T09:37:38;16.73;;;3.50;;
8675;SDS011;4375;52.486;13.424;2023-05-10T09:40:11;15.50;;;3.13;;
8675;SDS011;4375;52.486;13.424;2023-05-10T09:42:39;17.63;;;3.43;;
8675;SDS011;4375;52.486;13.424;2023-05-10T09:45:07;15.30;;;3.00;;
8675;SDS011;4375;52.486;13.424;2023-05-10T09:47:36;18.60;;;3.90;;
8675;SDS011;4375;52.486;13.424;2023-05-10T09:50:02;17.50;;;3.00;;
8675;SDS011;4375;52.486;13.424;2023-05-10T09:52:48;15.60;;;3.20;;
8675;SDS011;4375;52.486;13.424;2023-05-10T09:55:20;18.53;;;3.37;;
8675;SDS011;4375;52.486;13.424;2023-05-10T09:57:47;17.80;;;3.40;;
8675;SDS011;4375;52.486;13.424;2023-05-10T10:00:17;16.30;;;3.60;;
8675;SDS011;4375;52.486;13.424;2023-05-10T10:02:48;15.97;;;4.00;;
8675;SDS011;4375;52.486;13.424;2023-05-10T10:05:20;16.17;;;3.03;;
8675;SDS011;4375;52.486;13.424;2023-05-10T10:07:45;16.03;;;3.40;;
8675;SDS011;4375;52.486;13.424;2023-05-10T10:10:12;17.87;;;3.53;;
8675;SDS011;4375;52.486;13.424;2023-05-10T10:12:41;16.10;;;2.90;;
8675;SDS011;4375;52.486;13.424;2023-05-10T10:15:07;17.27;;;3.37;;
8675;SDS011;4375;52.486;13.424;2023-05-10T10:17:35;17.03;;;3.27;;
8675;SDS011;4375;52.486;13.424;2023-05-10T10:20:03;16.70;;;3.07;;
8675;SDS011;4375;52.486;13.424;2023-05-10T10:22:29;18.07;;;4.10;;
8675;SDS011;4375;52.486;13.424;2023-05-10T10:24:55;18.60;;;3.27;;
8675;SDS011;4375;52.486;13.424;2023-05-10T10:27:29;16.47;;;3.80;;
8675;SDS011;4375;52.486;13.424;2023-05-10T10:35:43;17.30;;;2.73;;
8675;SDS011;4375;52.486;13.424;2023-05-10T10:38:12;16.20;;;3.40;;
8675;SDS011;4375;52.486;13.424;2023-05-10T10:40:38;17.83;;;3.20;;
8675;SDS011;4375;52.486;13.424;2023-05-10T10:43:22;18.00;;;3.53;;
8675;SDS011;4375;52.486;13.424;2023-05-10T10:48:38;18.50;;;3.10;;
8675;SDS011;4375;52.486;13.424;2023-05-10T10:51:04;15.43;;;2.90;;
8675;SDS011;4375;52.486;13.424;2023-05-10T10:53:30;16.63;;;3.33;;
8675;SDS011;4375;52.486;13.424;2023-05-10T10:56:04;15.40;;;3.20;;
8675;SDS011;4375;52.486;13.424;2023-05-10T10:58:34;15.07;;;2.53;;
8675;SDS011;4375;52.486;13.424;2023-05-10T11:01:13;19.70;;;3.47;;
8675;SDS011;4375;52.486;13.424;2023-05-10T11:03:41;31.43;;;3.70;;
8675;SDS011;4375;52.486;13.424;2023-05-10T11:06:30;19.67;;;3.40;;
8675;SDS011;4375;52.486;13.424;2023-05-10T11:08:57;15.50;;;2.97;;
8675;SDS011;4375;52.486;13.424;2023-05-10T11:11:23;17.30;;;3.30;;
8675;SDS011;4375;52.486;13.424;2023-05-10T11:13:49;15.50;;;2.87;;
8675;SDS011;4375;52.486;13.424;2023-05-10T11:16:22;19.50;;;3.50;;
8675;SDS011;4375;52.486;13.424;2023-05-10T11:19:02;15.03;;;2.97;;
8675;SDS011;4375;52.486;13.424;2023-05-10T11:21:32;15.60;;;2.80;;
8675;SDS011;4375;52.486;13.424;2023-05-10T11:23:59;14.80;;;3.00;;
8675;SDS011;4375;52.486;13.424;2023-05-10T11:26:30;17.23;;;3.67;;
8675;SDS011;4375;52.486;13.424;2023-05-10T11:29:00;15.80;;;3.20;;
8675;SDS011;4375;52.486;13.424;2023-05-10T11:31:27;16.13;;;3.03;;
8675;SDS011;4375;52.486;13.424;2023-05-10T11:33:56;17.43;;;3.20;;
8675;SDS011;4375;52.486;13.424;2023-05-10T11:36:27;17.33;;;3.17;;
8675;SDS011;4375;52.486;13.424;2023-05-10T11:38:55;16.60;;;3.40;;
8675;SDS011;4375;52.486;13.424;2023-05-10T11:41:22;16.00;;;3.50;;
8675;SDS011;4375;52.486;13.424;2023-05-10T11:43:52;16.43;;;3.37;;
8675;SDS011;4375;52.486;13.424;2023-05-10T11:46:19;16.60;;;3.10;;
8675;SDS011;4375;52.486;13.424;2023-05-10T11:49:07;17.97;;;3.63;;
8675;SDS011;4375;52.486;13.424;2023-05-10T11:51:33;16.83;;;2.77;;
8675;SDS011;4375;52.486;13.424;2023-05-10T11:54:00;23.23;;;3.30;;
8675;SDS011;4375;52.486;13.424;2023-05-10T11:56:29;18.00;;;3.60;;
8675;SDS011;4375;52.486;13.424;2023-05-10T11:58:57;16.20;;;2.83;;
8675;SDS011;4375;52.486;13.424;2023-05-10T12:01:25;23.10;;;3.13;;
8675;SDS011;4375;52.486;13.424;2023-05-10T12:03:52;17.83;;;3.27;;
8675;SDS011;4375;52.486;13.424;2023-05-10T12:06:19;15.50;;;2.77;;
8675;SDS011;4375;52.486;13.424;2023-05-10T12:08:46;18.17;;;3.60;;
8675;SDS011;4375;52.486;13.424;2023-05-10T12:11:13;17.33;;;3.30;;
8675;SDS011;4375;52.486;13.424;2023-05-10T12:13:42;17.33;;;3.53;;
8675;SDS011;4375;52.486;13.424;2023-05-10T12:18:50;18.53;;;3.27;;
8675;SDS011;4375;52.486;13.424;2023-05-10T12:21:17;16.97;;;3.10;;
8675;SDS011;4375;52.486;13.424;2023-05-10T12:23:45;15.83;;;3.33;;
8675;SDS011;4375;52.486;13.424;2023-05-10T12:26:12;14.93;;;2.83;;
8675;SDS011;4375;52.486;13.424;2023-05-10T12:28:38;17.43;;;5.00;;
8675;SDS011;4375;52.486;13.424;2023-05-10T12:31:06;17.10;;;4.07;;
8675;SDS011;4375;52.486;13.424;2023-05-10T12:33:39;17.87;;;3.77;;
8675;SDS011;4375;52.486;13.424;2023-05-10T12:36:09;17.80;;;3.50;;
8675;SDS011;4375;52.486;13.424;2023-05-10T12:38:37;16.03;;;3.47;;
8675;SDS011;4375;52.486;13.424;2023-05-10T12:41:15;16.30;;;3.80;;
8675;SDS011;4375;52.486;13.424;2023-05-10T12:43:41;19.57;;;4.20;;
8675;SDS011;4375;52.486;13.424;2023-05-10T12:46:14;16.17;;;3.93;;
8675;SDS011;4375;52.486;13.424;2023-05-10T12:48:42;18.07;;;3.37;;
8675;SDS011;4375;52.486;13.424;2023-05-10T12:51:08;16.70;;;3.10;;
8675;SDS011;4375;52.486;13.424;2023-05-10T12:53:36;16.40;;;2.77;;
8675;SDS011;4375;52.486;13.424;2023-05-10T12:56:02;26.47;;;3.23;;
8675;SDS011;4375;52.486;13.424;2023-05-10T12:58:28;16.60;;;4.00;;
8675;SDS011;4375;52.486;13.424;2023-05-10T13:00:54;16.37;;;3.17;;
8675;SDS011;4375;52.486;13.424;2023-05-10T13:03:21;15.70;;;3.33;;
8675;SDS011;4375;52.486;13.424;2023-05-10T13:05:47;16.07;;;3.53;;
8675;SDS011;4375;52.486;13.424;2023-05-10T13:08:12;18.37;;;3.27;;
8675;SDS011;4375;52.486;13.424;2023-05-10T13:10:38;17.47;;;4.70;;
8675;SDS011;4375;52.486;13.424;2023-05-10T13:13:04;15.90;;;3.63;;
8675;SDS011;4375;52.486;13.424;2023-05-10T13:15:30;15.50;;;3.40;;
8675;SDS011;4375;52.486;13.424;2023-05-10T13:17:56;19.73;;;3.57;;
8675;SDS011;4375;52.486;13.424;2023-05-10T13:20:22;19.27;;;4.47;;
8675;SDS011;4375;52.486;13.424;2023-05-10T13:22:48;16.07;;;3.20;;
8675;SDS011;4375;52.486;13.424;2023-05-10T13:25:13;15.17;;;3.17;;
8675;SDS011;4375;52.486;13.424;2023-05-10T13:27:39;16.67;;;3.30;;
8675;SDS011;4375;52.486;13.424;2023-05-10T13:30:05;17.10;;;2.80;;
8675;SDS011;4375;52.486;13.424;2023-05-10T13:32:32;15.93;;;3.67;;
8675;SDS011;4375;52.486;13.424;2023-05-10T13:34:58;16.07;;;3.50;;
8675;SDS011;4375;52.486;13.424;2023-05-10T13:37:24;15.90;;;3.50;;
8675;SDS011;4375;52.486;13.424;2023-05-10T13:39:50;17.43;;;3.40;;
8675;SDS011;4375;52.486;13.424;2023-05-10T13:42:15;22.50;;;4.23;;
8675;SDS011;4375;52.486;13.424;2023-05-10T13:44:43;16.67;;;3.03;;
8675;SDS011;4375;52.486;13.424;2023-05-10T13:47:08;15.80;;;3.03;;
8675;SDS011;4375;52.486;13.424;2023-05-10T13:49:35;15.70;;;2.83;;
8675;SDS011;4375;52.486;13.424;2023-05-10T13:52:00;15.40;;;3.00;;
8675;SDS011;4375;52.486;13.424;2023-05-10T13:54:31;15.67;;;3.27;;
8675;SDS011;4375;52.486;13.424;2023-05-10T13:57:01;15.07;;;3.03;;
8675;SDS011;4375;52.486;13.424;2023-05-10T13:59:26;16.90;;;3.30;;
8675;SDS011;4375;52.486;13.424;2023-05-10T14:01:52;18.33;;;3.60;;
8675;SDS011;4375;52.486;13.424;2023-05-10T14:04:18;16.07;;;3.50;;
8675;SDS011;4375;52.486;13.424;2023-05-10T14:06:43;17.10;;;3.67;;
8675;SDS011;4375;52.486;13.424;2023-05-10T14:09:09;16.00;;;3.33;;
8675;SDS011;4375;52.486;13.424;2023-05-10T14:11:34;16.27;;;2.90;;
8675;SDS011;4375;52.486;13.424;2023-05-10T14:14:00;17.57;;;3.23;;
8675;SDS011;4375;52.486;13.424;2023-05-10T14:16:26;17.77;;;3.30;;
8675;SDS011;4375;52.486;13.424;2023-05-10T14:18:52;17.40;;;3.97;;
8675;SDS011;4375;52.486;13.424;2023-05-10T14:21:18;19.10;;;3.23;;
8675;SDS011;4375;52.486;13.424;2023-05-10T14:23:43;15.50;;;3.03;;
8675;SDS011;4375;52.486;13.424;2023-05-10T14:26:09;18.23;;;2.80;;
8675;SDS011;4375;52.486;13.424;2023-05-10T14:28:34;15.53;;;3.33;;
8675;SDS011;4375;52.486;13.424;2023-05-10T14:31:00;17.60;;;3.10;;
8675;SDS011;4375;52.486;13.424;2023-05-10T14:33:26;14.40;;;2.60;;
8675;SDS011;4375;52.486;13.424;2023-05-10T14:35:52;16.07;;;2.90;;
8675;SDS011;4375;52.486;13.424;2023-05-10T14:38:19;16.90;;;3.10;;
8675;SDS011;4375;52.486;13.424;2023-05-10T14:40:44;15.97;;;3.07;;
8675;SDS011;4375;52.486;13.424;2023-05-10T14:43:10;16.27;;;3.73;;
8675;SDS011;4375;52.486;13.424;2023-05-10T14:45:35;16.30;;;3.03;;
8675;SDS011;4375;52.486;13.424;2023-05-10T14:48:01;15.47;;;3.37;;
8675;SDS011;4375;52.486;13.424;2023-05-10T14:50:29;15.03;;;2.90;;
8675;SDS011;4375;52.486;13.424;2023-05-10T14:52:56;14.97;;;2.40;;
8675;SDS011;4375;52.486;13.424;2023-05-10T14:55:22;20.80;;;2.93;;
8675;SDS011;4375;52.486;13.424;2023-05-10T14:57:48;16.80;;;2.67;;
8675;SDS011;4375;52.486;13.424;2023-05-10T15:00:15;15.90;;;3.20;;
8675;SDS011;4375;52.486;13.424;2023-05-10T15:02:41;16.90;;;3.07;;
8675;SDS011;4375;52.486;13.424;2023-05-10T15:05:06;20.30;;;2.80;;
8675;SDS011;4375;52.486;13.424;2023-05-10T15:07:32;15.70;;;2.70;;
8675;SDS011;4375;52.486;13.424;2023-05-10T15:09:58;16.63;;;3.07;;
8675;SDS011;4375;52.486;13.424;2023-05-10T15:12:23;17.63;;;3.50;;
8675;SDS011;4375;52.486;13.424;2023-05-10T15:14:49;17.23;;;4.03;;
8675;SDS011;4375;52.486;13.424;2023-05-10T15:17:15;17.13;;;3.50;;
8675;SDS011;4375;52.486;13.424;2023-05-10T15:19:41;16.53;;;3.67;;